Flight Track Log - Related Links

Times and Time Zones

All times are in EDT time to prevent confusion due to time zone crossing. See the UAL1140 flight status page for this flight to view local times or setup timezone preferences in your user account.

Time Position Orientation Groundspeed Altitude Reporting Facility
EDT Latitude Longitude Course Direction KTS MPH feet Rate Location/Type
Sun 03:51:00 PM 40.9789 -82.0465 173° South  Level FlightAware Approximate
Sun 03:52:00 PM 40.8619 -82.0601 208° Southwest  Level FlightAware Approximate
Sun 03:53:00 PM 40.7535 -82.1359 208° Southwest  Level FlightAware Approximate
Sun 03:54:00 PM 40.6456 -82.2127 208° Southwest  Level FlightAware Approximate
Sun 03:55:00 PM 40.5478 -82.2954 206° Southwest  Level FlightAware Approximate
Sun 03:56:00 PM 40.4374 -82.3656 206° Southwest  Level FlightAware Approximate
Sun 03:57:00 PM 40.3290 -82.4407 210° Southwest  Level FlightAware Approximate
Sun 03:58:00 PM 40.2252 -82.5262 212° Southwest  Level FlightAware Approximate
Sun 03:59:00 PM 40.1172 -82.5679 160° South  Level FlightAware Approximate
Sun 04:00:00 PM 40.0019 -82.5135 160° South  Level FlightAware Approximate
Sun 04:01:00 PM 39.8865 -82.4593 160° South  Level FlightAware Approximate
Sun 04:02:00 PM 39.7719 -82.4026 159° South  Level FlightAware Approximate
Sun 04:03:00 PM 39.6562 -82.3497 161° South  Level FlightAware Approximate
Sun 04:04:00 PM 39.5406 -82.2970 160° South  Level FlightAware Approximate
Sun 04:05:00 PM 39.4250 -82.2440 161° South  Level FlightAware Approximate
Sun 04:06:00 PM 39.3093 -82.1913 161° South  Level FlightAware Approximate
Sun 04:07:00 PM 39.1937 -82.1386 161° South  Level FlightAware Approximate
Sun 04:08:00 PM 39.0780 -82.0862 161° South  Level FlightAware Approximate
Sun 04:09:00 PM 38.9623 -82.0339 161° South  Level FlightAware Approximate
Sun 04:10:00 PM 38.8466 -81.9819 162° South  Level FlightAware Approximate
Sun 04:11:00 PM 38.7301 -81.9328 162° South  Level FlightAware Approximate
Sun 04:12:00 PM 38.6136 -81.8838 162° South  Level FlightAware Approximate
Sun 04:13:00 PM 38.4971 -81.8350 162° South  Level FlightAware Approximate
Sun 04:14:00 PM 38.3806 -81.7863 162° South  Level FlightAware Approximate
Sun 04:15:00 PM 38.2604 -81.7703 182° South  Level FlightAware Approximate
Sun 04:16:00 PM 38.1379 -81.7765 182° South  Level FlightAware Approximate
Sun 04:17:00 PM 38.0154 -81.7826 182° South  Level FlightAware Approximate
Sun 04:18:00 PM 37.8929 -81.7876 182° South  Level FlightAware Approximate
Sun 04:19:00 PM 37.7703 -81.7925 182° South  Level FlightAware Approximate
Sun 04:20:00 PM 37.6478 -81.7974 182° South  Level FlightAware Approximate
Sun 04:21:00 PM 37.5252 -81.8018 181° South  Level FlightAware Approximate
Sun 04:22:00 PM 37.4026 -81.8057 181° South  Level FlightAware Approximate
Sun 04:23:00 PM 37.2800 -81.8095 181° South  Level FlightAware Approximate
Sun 04:24:00 PM 37.1575 -81.8133 181° South  Level FlightAware Approximate
Sun 04:25:00 PM 37.0349 -81.8176 183° South  Level FlightAware Approximate
Sun 04:26:00 PM 36.9124 -81.8252 183° South  Level FlightAware Approximate
Sun 04:27:00 PM 36.7900 -81.8327 183° South  Level FlightAware Approximate
Sun 04:28:00 PM 36.6675 -81.8402 183° South  Level FlightAware Approximate
Sun 04:29:00 PM 36.5450 -81.8477 183° South  Level FlightAware Approximate
Sun 04:30:00 PM 36.4226 -81.8552 183° South  Level FlightAware Approximate
Sun 04:31:00 PM 36.3001 -81.8626 183° South  Level FlightAware Approximate
Sun 04:32:00 PM 36.1776 -81.8690 182° South  Level FlightAware Approximate
Sun 04:33:00 PM 36.0550 -81.8740 182° South  Level FlightAware Approximate
Sun 04:34:00 PM 35.9325 -81.8790 182° South  Level FlightAware Approximate
Sun 04:35:00 PM 35.8100 -81.8840 182° South  Level FlightAware Approximate
Sun 04:36:00 PM 35.6874 -81.8890 182° South  Level FlightAware Approximate
Sun 04:37:00 PM 35.5649 -81.8940 182° South  Level FlightAware Approximate
Sun 04:38:00 PM 35.4423 -81.8990 182° South  Level FlightAware Approximate
Sun 04:39:00 PM 35.3198 -81.9042 182° South  Level FlightAware Approximate
Sun 04:40:00 PM 35.1972 -81.9096 182° South  Level FlightAware Approximate
Sun 04:41:00 PM 35.0747 -81.9149 182° South  Level FlightAware Approximate
Sun 04:42:00 PM 34.9530 -81.9313 189° South  Level FlightAware Approximate
Sun 04:43:00 PM 34.8317 -81.9534 188° South  Level FlightAware Approximate
Sun 04:44:00 PM 34.7105 -81.9754 188° South  Level FlightAware Approximate
Sun 04:45:00 PM 34.5892 -81.9975 189° South  Level FlightAware Approximate
Sun 04:46:00 PM 34.4679 -82.0197 189° South  Level FlightAware Approximate
Sun 04:47:00 PM 34.3467 -82.0418 189° South  Level FlightAware Approximate
Sun 04:48:00 PM 34.2254 -82.0638 189° South  Level FlightAware Approximate
Sun 04:49:00 PM 34.1042 -82.0858 189° South  Level FlightAware Approximate
Sun 04:50:00 PM 33.9829 -82.1077 189° South  Level FlightAware Approximate
Sun 04:51:00 PM 33.8614 -82.1270 187° South  Level FlightAware Approximate
Sun 04:52:00 PM 33.7396 -82.1443 187° South  Level FlightAware Approximate
Sun 04:53:00 PM 33.6180 -82.1633 188° South  Level FlightAware Approximate
Sun 04:53:22 PM 32.7344 -82.0533 188° South 426 490 35,000  Level Atlanta Center
Sun 04:54:00 PM 33.4965 -82.1830 188° South  Level FlightAware Approximate
Sun 04:54:22 PM 32.8517 -82.0656 355° North 426 490 35,000  Level Atlanta Center
Sun 04:55:00 PM 33.3750 -82.2026 188° South  Level FlightAware Approximate
Sun 04:55:22 PM 32.9686 -82.0778 355° North 426 490 35,000  Level Atlanta Center
Sun 04:56:00 PM 33.2535 -82.2222 188° South  Level FlightAware Approximate
Sun 04:56:22 PM 33.0858 -82.0900 355° North 426 490 35,000  Level Atlanta Center
Sun 04:57:00 PM 33.1320 -82.2417 188° South  Level FlightAware Approximate
Sun 04:57:22 PM 33.2031 -82.1047 354° North 426 490 35,000  Level Atlanta Center
Sun 04:58:00 PM 33.0104 -82.2611 188° South  Level FlightAware Approximate
Sun 04:58:22 PM 33.3094 -82.1175 354° North 426 490 35,000  Level Atlanta Center
Sun 04:59:22 PM 33.4244 -82.1297 355° North 426 490 35,000  Level Atlanta Center
Sun 05:00:22 PM 33.5417 -82.1422 355° North 426 490 35,000  Level Atlanta Center
Sun 05:01:22 PM 33.6608 -82.1569 354° North 426 490 35,000  Level Atlanta Center
Sun 05:02:22 PM 33.7839 -82.1467 North 426 490 35,000  Level Atlanta Center
Sun 05:03:22 PM 33.9108 -82.1264 North 441 507 35,000  Level Atlanta Center
Sun 05:04:22 PM 34.0400 -82.1036 North 453 521 35,000  Level Atlanta Center
Sun 05:05:22 PM 34.1669 -82.0831 North 464 534 35,000  Level Atlanta Center
Sun 05:06:22 PM 34.3106 -82.0569 North 464 534 35,000  Level Atlanta Center
Sun 05:07:22 PM 34.4375 -82.0339 North 464 534 35,000  Level Atlanta Center
Sun 05:08:22 PM 34.5644 -82.0133 North 464 534 35,000  Level Atlanta Center
Sun 05:09:22 PM 34.6933 -81.9875 North 464 534 35,000  Level Atlanta Center
Sun 05:10:22 PM 34.8161 -81.9667 North 464 534 35,000  Level Atlanta Center
Sun 05:11:22 PM 34.9411 -81.9483 North 459 528 35,000  Level Atlanta Center
Sun 05:12:22 PM 35.0681 -81.9300 North 459 528 35,000  Level Atlanta Center
Sun 05:13:22 PM 35.1931 -81.9242 North 454 522 35,000  Level Atlanta Center
Sun 05:14:22 PM 35.3161 -81.9186 North 448 516 35,000  Level Atlanta Center
Sun 05:15:22 PM 35.4392 -81.9128 North 443 510 35,000  Level Atlanta Center
Sun 05:16:22 PM 35.5642 -81.9097 North 437 503 35,000  Level Atlanta Center
Sun 05:17:22 PM 35.6725 -81.9017 North 437 503 35,000  Level Atlanta Center
Sun 05:18:22 PM 35.7956 -81.8958 North 437 503 35,000  Level Atlanta Center
Sun 05:19:22 PM 35.9206 -81.8900 North 437 503 35,000  Level Atlanta Center
Sun 05:20:22 PM 36.0436 -81.8842 North 437 503 35,000  Level Atlanta Center
Sun 05:21:22 PM 36.1664 -81.8758 North 437 503 35,000  Level Atlanta Center
Sun 05:22:22 PM 36.2894 -81.8672 North 442 509 35,000  Level Atlanta Center
Sun 05:23:22 PM 36.4164 -81.8614 North 442 509 35,000  Level Atlanta Center
Sun 05:24:22 PM 36.5497 -81.8575 North 437 503 35,000  Level Atlanta Center
Sun 05:25:22 PM 36.6747 -81.8492 North 442 509 35,000  Level Atlanta Center
Sun 05:27:03 PM 36.8858 -81.8414 North 452 520 35,000  Level Indianapolis Center
Sun 05:28:05 PM 37.0103 -81.8356 North 452 520 35,000  Level Indianapolis Center
Sun 05:29:07 PM 37.1353 -81.8294 North 452 520 35,000  Level Indianapolis Center
Sun 05:30:09 PM 37.2600 -81.8228 North 451 519 35,000  Level Indianapolis Center
Sun 05:31:11 PM 37.3850 -81.8175 North 451 519 35,000  Level Indianapolis Center
Sun 05:32:13 PM 37.5314 -81.8100 North 451 519 35,000  Level Indianapolis Center
Sun 05:33:15 PM 37.6558 -81.8047 North 451 519 35,000  Level Indianapolis Center
Sun 05:34:17 PM 37.7819 -81.7992 North 451 519 35,000  Level Indianapolis Center
Sun 05:35:19 PM 37.9000 -81.7917 North 451 519 35,000  Level Indianapolis Center
Sun 05:36:20 PM 38.0553 -81.7847 North 459 528 35,000  Level Indianapolis Center
Sun 05:37:22 PM 38.1850 -81.7789 North 461 531 35,000  Level Indianapolis Center
Sun 05:38:25 PM 38.3150 -81.7725 North 461 531 35,000  Level Indianapolis Center
Sun 05:39:27 PM 38.4425 -81.7850 356° North 460 529 35,000 -339 Level Indianapolis Center
Sun 05:40:29 PM 38.5678 -81.8053 353° North 452 520 34,300 -484 Descending Indianapolis Center
Sun 05:41:31 PM 38.6875 -81.8256 352° North 433 498 34,000 -145 Descending Indianapolis Center
Sun 05:42:33 PM 38.8075 -81.8456 353° North 431 496 34,000  Level Indianapolis Center
Sun 05:43:35 PM 38.9286 -81.8664 352° North 431 496 34,000  Level Indianapolis Center
Sun 05:44:37 PM 39.0492 -81.8858 353° North 431 496 34,000  Level Indianapolis Center
Sun 05:45:39 PM 39.1922 -81.9094 353° North 431 496 34,000  Level Indianapolis Center
Sun 05:46:41 PM 39.3125 -81.9300 352° North 431 496 34,000 -48 Level Indianapolis Center
Sun 05:47:43 PM 39.4350 -81.9508 353° North 437 503 33,900 -1,355 Descending Indianapolis Center
Sun 05:48:45 PM 39.5567 -81.9706 353° North 438 504 31,200 -2,758 Descending Indianapolis Center
Sun 05:49:47 PM 39.6753 -81.9903 353° North 436 502 28,200 -2,613 Descending Indianapolis Center
Sun 05:50:49 PM 39.7881 -82.0114 352° North 415 478 25,800 -2,081 Descending Indianapolis Center
Sun 05:51:51 PM 39.8978 -82.0283 353° North 408 470 23,900 -1,452 Descending Indianapolis Center
Sun 05:52:53 PM 40.0197 -82.0397 356° North 397 457 22,800 -1,016 Descending Indianapolis Center
Sun 05:53:55 PM 40.1297 -81.9975 16° North 412 474 21,800 -968 Descending Indianapolis Center
Sun 05:54:57 PM 40.2369 -81.9517 18° North 412 474 20,800 -968 Descending Indianapolis Center
Sun 05:55:59 PM 40.3406 -81.9075 18° North 401 461 19,800 -960 Descending Indianapolis Center
Sun 05:57:02 PM 40.4433 -81.8656 17° North 392 451 18,800 -912 Descending Indianapolis Center
Sun 05:58:04 PM 40.5633 -81.8128 18° North 385 443 17,900 -1,345 Descending Indianapolis Center
Sun 05:58:58 PM 40.6342 -81.7836 17° North 377 434 16,200 -2,143 Descending Cleveland Center
Sun 05:59:56 PM 40.7422 -81.7372 18° North 359 413 13,900 -2,419 Descending Cleveland Center
Sun 06:00:00 PM 40.7492 -81.7344 17° North 365 420 13,700 -1,814 Descending Cleveland Center
Sun 06:00:39 PM 40.8056 -81.7114 17° North 346 398 12,600 -1,905 Descending Cleveland Center
Sun 06:01:03 PM 40.8400 -81.6964 18° North 350 403 11,700 -1,967 Descending Cleveland Center
Sun 06:01:40 PM 40.8931 -81.6728 19° North 327 376 10,600 -1,770 Descending Cleveland Center
Sun 06:02:04 PM 40.9253 -81.6664 North 325 374 9,900 -600 Descending Cleveland Center
Sun 06:02:40 PM 40.9664 -81.6983 330° Northwest 266 306 10,000  Climbing Cleveland Center
Sun 06:03:06 PM 40.9861 -81.7206 320° Northwest 263 303 9,900  Descending Cleveland Center
Sun 06:03:41 PM 41.0192 -81.7622 316° Northwest 227 261 10,000  Climbing Cleveland Center
Sun 06:04:08 PM 41.0347 -81.7783 322° Northwest 239 275 9,900 -787 Descending Cleveland Center
Sun 06:04:42 PM 41.0706 -81.8203 319° Northwest 238 274 9,200 -1,258 Descending Cleveland Center
Sun 06:05:10 PM 41.0856 -81.8367 321° Northwest 239 275 8,600 -1,400 Descending Cleveland Center
Sun 06:06:12 PM 41.1456 -81.9103 317° Northwest 244 281 7,100 -1,032 Descending Cleveland Center
Sun 06:06:43 PM 41.1569 -81.9511 290° West 236 272 7,000 -290 Descending Cleveland Center
Sun 06:07:14 PM 41.1653 -81.9681 303° West 232 267 6,800 -1,279 Descending Cleveland Center
Sun 06:07:44 PM 41.1806 -82.0356 287° West 240 276 5,700 -1,319 Descending Cleveland Center
Sun 06:08:45 PM 41.2158 -82.0858 313° West 182 209 4,800 -885 Descending Cleveland Center
Sun 06:09:46 PM 41.2603 -82.0822 North 160 184 3,900 -942 Descending Cleveland Center
Sun 06:10:46 PM 41.2958 -82.0381 43° Northeast 169 194 2,900 -545 Descending Cleveland Center
Sun 06:11:47 PM 41.3256 -81.9900 51° Northeast 169 194 2,800 -344 Descending Cleveland Center
Sun 06:12:48 PM 41.3553 -81.9419 51° Northeast 167 192 2,200 -590 Descending Cleveland Center
Sun 06:14:00 PM 41.3500 -82.1377 270° West  Level FlightAware Approximate
Sun 06:21:00 PM 40.5667 -82.2830 270° West  Level FlightAware Approximate
Sun 06:22:00 PM 40.4566 -82.3535 206° Southwest  Level FlightAware Approximate
Sun 06:23:00 PM 40.3475 -82.4269 210° Southwest  Level FlightAware Approximate
Sun 06:24:00 PM 40.2432 -82.5113 212° Southwest  Level FlightAware Approximate
Sun 06:25:00 PM 40.1372 -82.5773 160° South  Level FlightAware Approximate
Sun 06:26:00 PM 40.0219 -82.5229 160° South  Level FlightAware Approximate
Sun 06:27:00 PM 39.9065 -82.4687 160° South  Level FlightAware Approximate
Sun 06:28:00 PM 39.7918 -82.4125 159° South  Level FlightAware Approximate
Sun 06:29:00 PM 39.6763 -82.3589 161° South  Level FlightAware Approximate
Sun 06:30:00 PM 39.5606 -82.3062 160° South  Level FlightAware Approximate
Sun 06:31:00 PM 39.4450 -82.2532 161° South  Level FlightAware Approximate
Sun 06:32:00 PM 39.3294 -82.2004 161° South  Level FlightAware Approximate
Sun 06:33:00 PM 39.2137 -82.1477 161° South  Level FlightAware Approximate
Sun 06:34:00 PM 39.0981 -82.0953 161° South  Level FlightAware Approximate
Sun 06:35:00 PM 38.9824 -82.0430 161° South  Level FlightAware Approximate
Sun 06:36:00 PM 38.8667 -81.9908 161° South  Level FlightAware Approximate
Sun 06:37:00 PM 38.7503 -81.9413 162° South  Level FlightAware Approximate
Sun 06:38:00 PM 38.6338 -81.8923 162° South  Level FlightAware Approximate
Sun 06:39:00 PM 38.5173 -81.8434 162° South  Level FlightAware Approximate
Sun 06:40:00 PM 38.4007 -81.7947 162° South  Level FlightAware Approximate
Sun 06:41:00 PM 38.2817 -81.7693 182° South  Level FlightAware Approximate
Sun 06:42:00 PM 38.1592 -81.7754 182° South  Level FlightAware Approximate
Sun 06:43:00 PM 38.0366 -81.7815 182° South  Level FlightAware Approximate
Sun 06:44:00 PM 37.9141 -81.7868 182° South  Level FlightAware Approximate
Sun 06:45:00 PM 37.7915 -81.7917 182° South  Level FlightAware Approximate
Sun 06:46:00 PM 37.6690 -81.7966 182° South  Level FlightAware Approximate
Sun 06:47:00 PM 37.5464 -81.8012 181° South  Level FlightAware Approximate
Sun 06:48:00 PM 37.4239 -81.8050 181° South  Level FlightAware Approximate
Sun 06:49:00 PM 37.3013 -81.8088 181° South  Level FlightAware Approximate
Sun 06:50:00 PM 37.1787 -81.8127 181° South  Level FlightAware Approximate
Sun 06:51:00 PM 37.0561 -81.8165 181° South  Level FlightAware Approximate
Sun 06:52:00 PM 36.9337 -81.8239 183° South  Level FlightAware Approximate
Sun 06:53:00 PM 36.8112 -81.8314 183° South  Level FlightAware Approximate
Sun 06:54:00 PM 36.6887 -81.8389 183° South  Level FlightAware Approximate
Sun 06:55:00 PM 36.5662 -81.8464 183° South  Level FlightAware Approximate
Sun 06:56:00 PM 36.4438 -81.8539 183° South  Level FlightAware Approximate
Sun 06:57:00 PM 36.3213 -81.8613 183° South  Level FlightAware Approximate
Sun 06:58:00 PM 36.1988 -81.8681 182° South  Level FlightAware Approximate
Sun 06:59:00 PM 36.0763 -81.8731 182° South  Level FlightAware Approximate
Sun 07:00:00 PM 35.9537 -81.8782 182° South  Level FlightAware Approximate
Sun 07:01:00 PM 35.8312 -81.8832 182° South  Level FlightAware Approximate
Sun 07:02:00 PM 35.7086 -81.8882 182° South  Level FlightAware Approximate
Sun 07:03:00 PM 35.5861 -81.8931 182° South  Level FlightAware Approximate
Sun 07:04:00 PM 35.4635 -81.8981 182° South  Level FlightAware Approximate
Sun 07:05:00 PM 35.3410 -81.9033 182° South  Level FlightAware Approximate
Sun 07:06:00 PM 35.2185 -81.9086 182° South  Level FlightAware Approximate
Sun 07:07:00 PM 35.0959 -81.9140 182° South  Level FlightAware Approximate
Sun 07:08:00 PM 34.9740 -81.9275 189° South  Level FlightAware Approximate
Sun 07:09:00 PM 34.8527 -81.9496 188° South  Level FlightAware Approximate
Sun 07:10:00 PM 34.7315 -81.9716 188° South  Level FlightAware Approximate
Sun 07:11:00 PM 34.6102 -81.9937 189° South  Level FlightAware Approximate
Sun 07:12:00 PM 34.4890 -82.0159 189° South  Level FlightAware Approximate
Sun 07:13:00 PM 34.3677 -82.0380 189° South  Level FlightAware Approximate
Sun 07:14:00 PM 34.2465 -82.0600 189° South  Level FlightAware Approximate
Sun 07:15:00 PM 34.1252 -82.0820 189° South  Level FlightAware Approximate
Sun 07:16:00 PM 34.0039 -82.1039 189° South  Level FlightAware Approximate
Sun 07:17:00 PM 33.8825 -82.1239 187° South  Level FlightAware Approximate
Sun 07:18:00 PM 33.7607 -82.1413 187° South  Level FlightAware Approximate
Sun 07:19:00 PM 33.6391 -82.1599 188° South  Level FlightAware Approximate
Sun 07:20:00 PM 33.5176 -82.1796 188° South  Level FlightAware Approximate
Sun 07:21:00 PM 33.3960 -82.1992 188° South  Level FlightAware Approximate
Sun 07:22:00 PM 33.2745 -82.2188 188° South  Level FlightAware Approximate
Sun 07:23:00 PM 33.1530 -82.2383 188° South  Level FlightAware Approximate
Sun 07:24:00 PM 33.0315 -82.2578 188° South  Level FlightAware Approximate
Sun 07:25:00 PM 32.9100 -82.2772 188° South  Level FlightAware Approximate
Sun 07:26:00 PM 32.7884 -82.2965 188° South  Level FlightAware Approximate
Sun 07:27:00 PM 32.6671 -82.3175 188° South  Level FlightAware Approximate
Sun 07:28:00 PM 32.5458 -82.3389 188° South  Level FlightAware Approximate
Sun 07:29:00 PM 32.4245 -82.3601 188° South  Level FlightAware Approximate
Sun 07:30:00 PM 32.3032 -82.3813 188° South  Level FlightAware Approximate
Sun 07:31:00 PM 32.1819 -82.4024 188° South  Level FlightAware Approximate
Sun 07:32:00 PM 32.0605 -82.4225 187° South  Level FlightAware Approximate
Sun 07:33:00 PM 31.9388 -82.4405 187° South  Level FlightAware Approximate
Sun 07:34:00 PM 31.8171 -82.4584 187° South  Level FlightAware Approximate
Sun 07:35:00 PM 31.6955 -82.4763 187° South  Level FlightAware Approximate
Sun 07:36:00 PM 31.5738 -82.4941 187° South  Level FlightAware Approximate
Sun 07:37:00 PM 31.4538 -82.4772 166° South  Level FlightAware Approximate
Sun 07:38:00 PM 31.3347 -82.4431 166° South  Level FlightAware Approximate
Sun 07:39:00 PM 31.2156 -82.4091 166° South  Level FlightAware Approximate
Sun 07:40:00 PM 31.0965 -82.3752 166° South  Level FlightAware Approximate
Sun 07:41:00 PM 30.9773 -82.3414 166° South  Level FlightAware Approximate
Sun 07:42:00 PM 30.8582 -82.3076 166° South  Level FlightAware Approximate
Sun 07:43:00 PM 30.7390 -82.2740 166° South  Level FlightAware Approximate
Sun 07:44:00 PM 30.6199 -82.2404 166° South  Level FlightAware Approximate
Sun 07:45:00 PM 30.5007 -82.2069 166° South  Level FlightAware Approximate
Sun 07:46:00 PM 30.3815 -82.1733 166° South  Level FlightAware Approximate
Sun 07:47:00 PM 30.2625 -82.1393 166° South  Level FlightAware Approximate
Sun 07:48:00 PM 30.1427 -82.1099 172° South  Level FlightAware Approximate
Sun 07:49:00 PM 30.0213 -82.0897 172° South  Level FlightAware Approximate
Sun 07:50:00 PM 29.9003 -82.0671 170° South  Level FlightAware Approximate
Sun 07:51:00 PM 29.7794 -82.0435 170° South  Level FlightAware Approximate
Sun 07:52:00 PM 29.6585 -82.0200 170° South  Level FlightAware Approximate
Sun 07:53:00 PM 29.5376 -81.9965 170° South  Level FlightAware Approximate
Sun 07:54:00 PM 29.4167 -81.9731 170° South  Level FlightAware Approximate
Sun 07:55:00 PM 29.2971 -81.9434 171° South  Level FlightAware Approximate
Sun 07:56:00 PM 29.1760 -81.9213 171° South  Level FlightAware Approximate
Sun 07:57:00 PM 29.0549 -81.8992 171° South  Level FlightAware Approximate
Sun 07:58:00 PM 28.9338 -81.8773 171° South  Level FlightAware Approximate
Sun 07:59:00 PM 28.8127 -81.8553 171° South  Level FlightAware Approximate
Sun 08:00:00 PM 28.6920 -81.8304 169° South  Level FlightAware Approximate
Sun 08:01:00 PM 28.5715 -81.8046 169° South  Level FlightAware Approximate
Sun 08:02:00 PM 28.4536 -81.7693 169° South  Level FlightAware Approximate
Sun 08:03:00 PM 28.3345 -81.7371 161° South  Level FlightAware Approximate
Sun 08:04:00 PM 28.2171 -81.6977 166° South  Level FlightAware Approximate
Sun 08:05:00 PM 28.0982 -81.6637 166° South  Level FlightAware Approximate
Sun 08:06:00 PM 27.9800 -81.6734 196° South  Level FlightAware Approximate
Sun 08:07:00 PM 27.8624 -81.7125 196° South  Level FlightAware Approximate
Sun 08:08:00 PM 27.7422 -81.7394 192° South  Level FlightAware Approximate
Sun 08:09:00 PM 27.6206 -81.7500 180° South  Level FlightAware Approximate
Sun 08:10:00 PM 27.5053 -81.7110 156° South  Level FlightAware Approximate
Sun 08:11:00 PM 27.3904 -81.6635 158° South  Level FlightAware Approximate
Sun 08:12:00 PM 27.2769 -81.6111 158° South  Level FlightAware Approximate
Sun 08:13:00 PM 27.1660 -81.5529 152° Southeast  Level FlightAware Approximate
Sun 08:14:00 PM 27.0552 -81.4982 153° Southeast  Level FlightAware Approximate
Sun 08:15:00 PM 26.9422 -81.4461 156° South  Level FlightAware Approximate
Sun 08:16:00 PM 26.8302 -81.3901 156° South  Level FlightAware Approximate
Sun 08:17:00 PM 26.7089 -81.3833 180° South  Level FlightAware Approximate
Sun 08:18:00 PM 26.5863 -81.3833 180° South  Level FlightAware Approximate
Sun 08:19:00 PM 26.4675 -81.4164 197° South  Level FlightAware Approximate
Sun 08:20:00 PM 26.3508 -81.4579 204° Southwest  Level FlightAware Approximate
Sun 08:21:00 PM 26.3442 -81.5383 299° West  Level FlightAware Approximate

Login

Don't have an account? Register now (free) for customized features, flight alerts, and more!